createdAt,value
2023-03-06T00:00:54.880Z,6.28
2023-03-06T00:01:54.888Z,6.29
2023-03-06T00:02:54.874Z,6.25
2023-03-06T00:03:54.889Z,6.28
2023-03-06T00:04:54.865Z,6.29
2023-03-06T00:05:54.886Z,6.28
2023-03-06T00:06:54.855Z,6.25
2023-03-06T00:07:54.840Z,6.28
2023-03-06T00:08:54.824Z,6.28
2023-03-06T00:09:54.799Z,6.25
2023-03-06T00:10:54.779Z,6.22
2023-03-06T00:11:54.821Z,6.22
2023-03-06T00:12:54.825Z,6.25
2023-03-06T00:13:54.747Z,6.25
2023-03-06T00:14:54.755Z,6.22
2023-03-06T00:15:54.754Z,6.25
2023-03-06T00:16:54.714Z,6.22
2023-03-06T00:17:54.719Z,6.22
2023-03-06T00:18:54.726Z,6.20
2023-03-06T00:19:54.694Z,6.22
2023-03-06T00:20:54.677Z,6.20
2023-03-06T00:21:54.685Z,6.19
2023-03-06T00:22:54.672Z,6.19
2023-03-06T00:23:54.739Z,6.20
2023-03-06T00:24:54.647Z,6.22
2023-03-06T00:25:54.638Z,6.19
2023-03-06T00:26:54.660Z,6.16
2023-03-06T00:27:54.633Z,6.16
2023-03-06T00:28:54.606Z,6.17
2023-03-06T00:29:54.583Z,6.16
2023-03-06T00:30:54.587Z,6.15
2023-03-06T00:31:54.592Z,6.17
2023-03-06T00:32:54.560Z,6.16
2023-03-06T00:33:54.552Z,6.17
2023-03-06T00:34:54.531Z,6.16
2023-03-06T00:35:54.562Z,6.16
2023-03-06T00:36:54.513Z,6.15
2023-03-06T00:37:54.494Z,6.15
2023-03-06T00:38:54.523Z,6.15
2023-03-06T00:39:54.480Z,6.15
2023-03-06T00:40:54.478Z,6.13
2023-03-06T00:41:54.475Z,6.15
2023-03-06T00:42:54.454Z,6.12
2023-03-06T00:43:54.454Z,6.15
2023-03-06T00:44:54.421Z,6.12
2023-03-06T00:45:54.454Z,6.09
2023-03-06T00:46:54.419Z,6.12
2023-03-06T00:47:54.391Z,6.12
2023-03-06T00:48:54.384Z,6.12
2023-03-06T00:49:54.368Z,6.12
2023-03-06T00:50:54.359Z,6.07
2023-03-06T00:51:54.380Z,6.12
2023-03-06T00:52:54.362Z,6.09
2023-03-06T00:53:54.334Z,6.09
2023-03-06T00:54:54.323Z,6.09
2023-03-06T00:55:54.327Z,6.05
2023-03-06T00:56:54.325Z,6.06
2023-03-06T00:57:54.299Z,6.09
2023-03-06T00:58:54.285Z,6.05
2023-03-06T00:59:54.273Z,6.06
2023-03-06T01:00:54.293Z,6.06
2023-03-06T01:01:54.264Z,6.02
2023-03-06T01:02:54.253Z,6.05
2023-03-06T01:03:54.224Z,6.02
2023-03-06T01:04:54.272Z,6.02
2023-03-06T01:05:54.212Z,6.06
2023-03-06T01:06:54.196Z,6.05
2023-03-06T01:07:54.188Z,6.06
2023-03-06T01:08:54.180Z,6.02
2023-03-06T01:09:54.169Z,6.06
2023-03-06T01:10:54.167Z,6.05
2023-03-06T01:11:54.161Z,6.02
2023-03-06T01:12:54.159Z,6.01
2023-03-06T01:13:54.153Z,6.01
2023-03-06T01:14:54.112Z,6.01
2023-03-06T01:15:54.134Z,6.02
2023-03-06T01:16:54.100Z,6.01
2023-03-06T01:17:54.088Z,6.02
2023-03-06T01:18:54.095Z,5.99
2023-03-06T01:19:54.068Z,5.98
2023-03-06T01:20:54.065Z,5.99
2023-03-06T01:21:54.031Z,5.99
2023-03-06T01:22:54.024Z,5.99
2023-03-06T01:23:54.036Z,5.98
2023-03-06T01:24:53.999Z,5.99
2023-03-06T01:25:54.001Z,5.98
2023-03-06T01:26:53.972Z,6.01
2023-03-06T01:27:53.994Z,5.97
2023-03-06T01:28:53.962Z,5.97
2023-03-06T01:29:53.968Z,5.97
2023-03-06T01:30:53.940Z,5.95
2023-03-06T01:31:53.991Z,5.97
2023-03-06T01:32:53.940Z,5.95
2023-03-06T01:33:53.931Z,5.97
2023-03-06T01:34:53.899Z,5.97
2023-03-06T01:35:53.921Z,5.95
2023-03-06T01:36:53.882Z,5.97
2023-03-06T01:37:53.885Z,5.94
2023-03-06T01:38:53.860Z,5.92
2023-03-06T01:39:53.844Z,5.95
2023-03-06T01:40:53.843Z,5.94
2023-03-06T01:41:53.823Z,5.95
2023-03-06T01:42:53.835Z,5.92
2023-03-06T01:43:53.836Z,5.94
2023-03-06T01:44:53.797Z,5.98
2023-03-06T01:45:53.929Z,5.94
2023-03-06T01:46:53.787Z,5.94
2023-03-06T01:47:53.767Z,5.94
2023-03-06T01:48:53.764Z,5.92
2023-03-06T01:49:53.752Z,5.92
2023-03-06T01:50:53.741Z,5.95
2023-03-06T01:51:53.726Z,5.95
2023-03-06T01:52:53.756Z,5.95
2023-03-06T01:53:53.709Z,5.95
2023-03-06T01:54:53.733Z,5.95
2023-03-06T01:55:53.707Z,5.94
2023-03-06T01:56:53.692Z,5.91
2023-03-06T01:57:53.684Z,5.92
2023-03-06T01:58:53.667Z,5.92
2023-03-06T01:59:53.645Z,5.92
2023-03-06T02:00:53.710Z,5.94
2023-03-06T02:01:53.626Z,5.92
2023-03-06T02:02:53.636Z,5.94
2023-03-06T02:03:53.669Z,5.95
2023-03-06T02:04:53.598Z,5.94
2023-03-06T02:05:53.590Z,5.94
2023-03-06T02:06:53.586Z,5.92
2023-03-06T02:07:53.589Z,5.92
2023-03-06T02:08:53.551Z,5.92
2023-03-06T02:09:53.556Z,5.94
2023-03-06T02:10:53.530Z,5.91
2023-03-06T02:11:53.534Z,5.92
2023-03-06T02:12:53.534Z,5.91
2023-03-06T02:13:53.502Z,5.91
2023-03-06T02:14:53.549Z,5.92
2023-03-06T02:15:53.490Z,5.88
2023-03-06T02:16:53.474Z,5.88
2023-03-06T02:17:53.502Z,5.91
2023-03-06T02:18:53.451Z,5.87
2023-03-06T02:19:53.467Z,5.84
2023-03-06T02:20:53.434Z,5.83
2023-03-06T02:21:53.432Z,5.84
2023-03-06T02:22:53.434Z,5.84
2023-03-06T02:23:53.442Z,5.87
2023-03-06T02:24:53.393Z,5.81
2023-03-06T02:25:53.375Z,5.80
2023-03-06T02:26:53.394Z,5.80
2023-03-06T02:27:53.375Z,5.80
2023-03-06T02:28:53.352Z,5.79
2023-03-06T02:29:53.342Z,5.77
2023-03-06T02:30:53.429Z,5.77
2023-03-06T02:31:53.329Z,5.77
2023-03-06T02:32:53.330Z,5.77
2023-03-06T02:33:53.297Z,5.76
2023-03-06T02:34:53.279Z,5.72
2023-03-06T02:35:53.328Z,5.74
2023-03-06T02:36:53.287Z,5.73
2023-03-06T02:37:53.311Z,5.72
2023-03-06T02:38:53.257Z,5.70
2023-03-06T02:39:53.265Z,5.72
2023-03-06T02:40:53.215Z,5.70
2023-03-06T02:41:53.229Z,5.73
2023-03-06T02:42:53.324Z,5.69
2023-03-06T02:43:53.238Z,5.67
2023-03-06T02:44:53.174Z,5.65
2023-03-06T02:45:53.297Z,5.64
2023-03-06T02:46:53.173Z,5.69
2023-03-06T02:47:53.196Z,5.69
2023-03-06T02:48:53.144Z,5.67
2023-03-06T02:49:53.173Z,5.65
2023-03-06T02:50:53.129Z,5.65
2023-03-06T02:51:53.151Z,5.65
2023-03-06T02:52:53.120Z,5.67
2023-03-06T02:53:53.147Z,5.67
2023-03-06T02:54:53.074Z,5.65
2023-03-06T02:55:53.101Z,5.65
2023-03-06T02:56:53.052Z,5.65
2023-03-06T02:57:53.046Z,5.65
2023-03-06T02:58:53.053Z,5.64
2023-03-06T02:59:53.022Z,5.64
2023-03-06T03:00:53.026Z,5.62
2023-03-06T03:01:53.117Z,5.69
2023-03-06T03:02:52.995Z,5.65
2023-03-06T03:03:52.990Z,5.62
2023-03-06T03:04:53.094Z,5.65
2023-03-06T03:05:52.987Z,5.65
2023-03-06T03:06:52.937Z,5.65
2023-03-06T03:07:52.965Z,5.67
2023-03-06T03:08:52.974Z,5.65
2023-03-06T03:09:52.923Z,5.61
2023-03-06T03:10:52.907Z,5.65
2023-03-06T03:11:52.900Z,5.61
2023-03-06T03:12:52.906Z,5.64
2023-03-06T03:13:52.931Z,5.61
2023-03-06T03:14:52.889Z,5.62
2023-03-06T03:15:52.890Z,5.58
2023-03-06T03:16:52.846Z,5.62
2023-03-06T03:17:52.855Z,5.64
2023-03-06T03:18:52.869Z,5.59
2023-03-06T03:19:52.806Z,5.61
2023-03-06T03:20:52.848Z,5.58
2023-03-06T03:21:52.796Z,5.59
2023-03-06T03:22:52.776Z,5.55
2023-03-06T03:23:52.799Z,5.59
2023-03-06T03:24:52.814Z,5.56
2023-03-06T03:25:52.760Z,5.54
2023-03-06T03:26:52.748Z,5.54
2023-03-06T03:27:52.762Z,5.54
2023-03-06T03:28:53.126Z,5.54
2023-03-06T03:29:52.716Z,5.52
2023-03-06T03:30:52.740Z,5.51
2023-03-06T03:31:52.747Z,5.51
2023-03-06T03:32:52.689Z,5.47
2023-03-06T03:33:52.890Z,5.47
2023-03-06T03:34:52.651Z,5.46
2023-03-06T03:35:52.678Z,5.46
2023-03-06T03:36:52.657Z,5.43
2023-03-06T03:37:52.646Z,5.44
2023-03-06T03:38:52.630Z,5.41
2023-03-06T03:39:52.671Z,5.40
2023-03-06T03:40:52.603Z,5.37
2023-03-06T03:41:52.816Z,5.40
2023-03-06T03:42:52.605Z,5.36
2023-03-06T03:43:52.588Z,5.36
2023-03-06T03:44:52.549Z,5.31
2023-03-06T03:45:52.540Z,5.29
2023-03-06T03:46:52.527Z,5.29
2023-03-06T03:47:52.520Z,5.28
2023-03-06T03:48:52.571Z,5.26
2023-03-06T03:49:52.500Z,5.25
2023-03-06T03:50:52.488Z,5.23
2023-03-06T03:51:52.486Z,5.23
2023-03-06T03:52:52.459Z,5.23
2023-03-06T03:53:52.463Z,5.20
2023-03-06T03:54:52.507Z,5.20
2023-03-06T03:55:52.438Z,5.18
2023-03-06T03:56:52.425Z,5.18
2023-03-06T03:57:52.415Z,5.18
2023-03-06T03:58:52.392Z,5.19
2023-03-06T03:59:52.421Z,5.15
2023-03-06T04:00:52.376Z,5.15
2023-03-06T04:01:52.423Z,5.15
2023-03-06T04:02:52.355Z,5.15
2023-03-06T04:03:52.355Z,5.15
2023-03-06T04:04:52.440Z,5.15
2023-03-06T04:05:52.573Z,5.13
2023-03-06T04:06:52.336Z,5.12
2023-03-06T04:07:52.326Z,5.13
2023-03-06T04:08:52.426Z,5.12
2023-03-06T04:09:52.283Z,5.12
2023-03-06T04:10:52.282Z,5.13
2023-03-06T04:11:52.285Z,5.12
2023-03-06T04:12:52.263Z,5.13
2023-03-06T04:13:52.231Z,5.08
2023-03-06T04:14:52.263Z,5.10
2023-03-06T04:15:52.260Z,5.12
2023-03-06T04:16:52.214Z,5.10
2023-03-06T04:17:52.214Z,5.08
2023-03-06T04:18:52.190Z,5.08
2023-03-06T04:19:52.200Z,5.07
2023-03-06T04:20:52.191Z,5.10
2023-03-06T04:21:52.155Z,5.08
2023-03-06T04:22:52.151Z,5.07
2023-03-06T04:23:52.152Z,5.07
2023-03-06T04:24:52.196Z,5.10
2023-03-06T04:25:52.124Z,5.10
2023-03-06T04:26:52.099Z,5.12
2023-03-06T04:27:52.100Z,5.10
2023-03-06T04:28:52.206Z,5.10
2023-03-06T04:29:52.113Z,5.12
2023-03-06T04:30:52.071Z,5.10
2023-03-06T04:31:52.066Z,5.12
2023-03-06T04:32:52.053Z,5.08
2023-03-06T04:33:52.052Z,5.10
2023-03-06T04:34:52.041Z,5.08
2023-03-06T04:35:52.084Z,5.10
2023-03-06T04:36:52.007Z,5.08
2023-03-06T04:37:51.989Z,5.08
2023-03-06T04:38:51.980Z,5.10
2023-03-06T04:39:51.985Z,5.10
2023-03-06T04:40:51.983Z,5.10
2023-03-06T04:41:51.977Z,5.10
2023-03-06T04:42:51.936Z,5.08
2023-03-06T04:43:51.930Z,5.05
2023-03-06T04:44:51.944Z,5.05
2023-03-06T04:45:51.926Z,5.08
2023-03-06T04:46:51.897Z,5.08
2023-03-06T04:47:51.885Z,5.08
2023-03-06T04:48:51.886Z,5.04
2023-03-06T04:49:51.874Z,5.05
2023-03-06T04:50:51.861Z,5.04
2023-03-06T04:51:51.864Z,5.04
2023-03-06T04:52:51.855Z,5.04
2023-03-06T04:53:51.822Z,5.04
2023-03-06T04:54:51.855Z,5.01
2023-03-06T04:55:51.797Z,5.01
2023-03-06T04:56:51.818Z,5.00
2023-03-06T04:57:51.782Z,5.04
2023-03-06T04:58:51.782Z,5.02
2023-03-06T04:59:51.772Z,5.02
2023-03-06T05:00:51.806Z,5.00
2023-03-06T05:01:51.762Z,5.00
2023-03-06T05:02:51.717Z,5.00
2023-03-06T05:03:51.740Z,5.00
2023-03-06T05:04:51.699Z,5.00
2023-03-06T05:05:51.697Z,4.98
2023-03-06T05:06:51.714Z,5.00
2023-03-06T05:07:51.670Z,4.97
2023-03-06T05:08:51.659Z,5.00
2023-03-06T05:09:51.647Z,5.00
2023-03-06T05:10:51.675Z,4.98
2023-03-06T05:11:51.630Z,5.00
2023-03-06T05:12:51.717Z,5.00
2023-03-06T05:13:51.647Z,4.98
2023-03-06T05:14:51.699Z,4.95
2023-03-06T05:15:51.628Z,5.01
2023-03-06T05:16:51.602Z,4.95
2023-03-06T05:17:51.614Z,4.97
2023-03-06T05:18:51.588Z,4.95
2023-03-06T05:19:51.686Z,4.95
2023-03-06T05:20:51.547Z,4.95
2023-03-06T05:21:51.577Z,4.95
2023-03-06T05:22:51.534Z,4.92
2023-03-06T05:23:51.504Z,4.94
2023-03-06T05:24:51.503Z,4.92
2023-03-06T05:25:51.517Z,4.92
2023-03-06T05:26:51.496Z,4.92
2023-03-06T05:27:51.480Z,4.90
2023-03-06T05:28:51.545Z,4.92
2023-03-06T05:29:51.466Z,4.90
2023-03-06T05:30:51.441Z,4.89
2023-03-06T05:31:51.447Z,4.90
2023-03-06T05:32:51.545Z,4.89
2023-03-06T05:33:51.405Z,4.94
2023-03-06T05:34:51.391Z,4.89
2023-03-06T05:35:51.369Z,4.94
2023-03-06T05:36:51.323Z,4.92
2023-03-06T05:37:51.296Z,4.92
2023-03-06T05:38:51.303Z,4.90
2023-03-06T05:39:51.344Z,4.92
2023-03-06T05:40:51.327Z,4.92
2023-03-06T05:41:51.275Z,4.92
2023-03-06T05:42:51.271Z,4.90
2023-03-06T05:43:51.286Z,4.94
2023-03-06T05:44:51.233Z,4.90
2023-03-06T05:45:51.254Z,4.94
2023-03-06T05:46:51.226Z,4.94
2023-03-06T05:47:51.187Z,4.94
2023-03-06T05:48:51.191Z,4.94
2023-03-06T05:49:51.206Z,4.95
2023-03-06T05:50:51.208Z,4.95
2023-03-06T05:51:51.152Z,4.95
2023-03-06T05:52:51.139Z,4.95
2023-03-06T05:53:51.133Z,4.92
2023-03-06T05:54:51.159Z,4.94
2023-03-06T05:55:51.214Z,4.94
2023-03-06T05:56:51.108Z,4.95
2023-03-06T05:57:51.078Z,4.94
2023-03-06T05:58:51.087Z,4.98
2023-03-06T05:59:51.065Z,4.98
2023-03-06T06:00:51.103Z,4.95
2023-03-06T06:01:51.052Z,4.97
2023-03-06T06:02:51.674Z,4.95
2023-03-06T06:03:51.244Z,4.97
2023-03-06T06:04:51.015Z,4.98
2023-03-06T06:05:51.024Z,4.97
2023-03-06T06:06:51.190Z,4.95
2023-03-06T06:07:51.074Z,4.95
2023-03-06T06:08:50.974Z,4.98
2023-03-06T06:09:50.995Z,4.97
2023-03-06T06:10:53.324Z,4.98
2023-03-06T06:11:50.971Z,5.00
2023-03-06T06:12:50.988Z,4.98
2023-03-06T06:13:50.910Z,4.95
2023-03-06T06:14:50.914Z,5.00
2023-03-06T06:15:50.922Z,5.00
2023-03-06T06:16:50.949Z,5.00
2023-03-06T06:17:50.884Z,5.00
2023-03-06T06:18:51.317Z,5.00
2023-03-06T06:19:51.470Z,5.02
2023-03-06T06:20:50.850Z,5.02
2023-03-06T06:21:50.836Z,5.04
2023-03-06T06:22:50.864Z,5.05
2023-03-06T06:23:50.817Z,5.05
2023-03-06T06:24:50.817Z,5.07
2023-03-06T06:25:50.792Z,5.08
2023-03-06T06:26:50.807Z,5.04
2023-03-06T06:27:50.826Z,5.08
2023-03-06T06:28:50.759Z,5.07
2023-03-06T06:29:50.761Z,5.10
2023-03-06T06:30:50.912Z,5.08
2023-03-06T06:31:50.775Z,5.08
2023-03-06T06:32:50.738Z,5.15
2023-03-06T06:33:50.732Z,5.16
2023-03-06T06:34:50.730Z,5.16
2023-03-06T06:35:50.805Z,5.18
2023-03-06T06:36:53.253Z,5.16
2023-03-06T06:37:50.666Z,5.19
2023-03-06T06:38:50.677Z,5.20
2023-03-06T06:39:50.697Z,5.22
2023-03-06T06:41:26.807Z,5.23
2023-03-06T06:42:03.286Z,5.25
2023-03-06T06:42:51.660Z,5.25
2023-03-06T06:43:50.602Z,5.28
2023-03-06T06:44:50.620Z,5.26
2023-03-06T06:45:50.630Z,5.29
2023-03-06T06:47:51.699Z,5.31
2023-03-06T06:48:50.580Z,5.31
2023-03-06T06:49:50.583Z,5.29
2023-03-06T06:50:50.590Z,5.29
2023-03-06T06:51:50.557Z,5.33
2023-03-06T06:52:50.548Z,5.31
2023-03-06T06:53:50.557Z,5.34
2023-03-06T06:54:50.507Z,5.34
2023-03-06T06:55:50.488Z,5.37
2023-03-06T06:56:50.560Z,5.37
2023-03-06T06:57:50.488Z,5.37
2023-03-06T06:58:50.460Z,5.37
2023-03-06T06:59:52.544Z,5.37
2023-03-06T07:00:50.463Z,5.37
2023-03-06T07:01:50.466Z,5.43
2023-03-06T07:02:50.407Z,5.41
2023-03-06T07:03:50.483Z,5.43
2023-03-06T07:05:02.986Z,5.41
2023-03-06T07:05:51.521Z,5.43
2023-03-06T07:06:50.369Z,5.43
2023-03-06T07:07:50.360Z,5.44
2023-03-06T07:08:50.346Z,5.46
2023-03-06T07:09:50.325Z,5.49
2023-03-06T07:10:50.350Z,5.49
2023-03-06T07:11:50.396Z,5.51
2023-03-06T07:12:50.325Z,5.52
2023-03-06T07:13:50.291Z,5.54
2023-03-06T07:14:50.309Z,5.54
2023-03-06T07:15:50.700Z,5.56
2023-03-06T07:16:50.274Z,5.55
2023-03-06T07:17:50.486Z,5.59
2023-03-06T07:18:50.248Z,5.58
2023-03-06T07:19:50.246Z,5.59
2023-03-06T07:20:50.227Z,5.58
2023-03-06T07:21:50.259Z,5.64
2023-03-06T07:22:51.869Z,5.59
2023-03-06T07:23:50.184Z,5.58
2023-03-06T07:24:50.175Z,5.61
2023-03-06T07:25:50.215Z,5.62
2023-03-06T07:26:50.189Z,5.61
2023-03-06T07:27:53.611Z,5.64
2023-03-06T07:28:52.890Z,5.67
2023-03-06T07:29:50.214Z,5.65
2023-03-06T07:30:50.360Z,5.67
2023-03-06T07:31:50.258Z,5.67
2023-03-06T07:32:50.136Z,5.69
2023-03-06T07:33:50.134Z,5.67
2023-03-06T07:34:50.116Z,5.70
2023-03-06T07:35:50.075Z,5.70
2023-03-06T07:36:50.056Z,5.69
2023-03-06T07:37:50.055Z,5.72
2023-03-06T07:38:50.046Z,5.72
2023-03-06T07:39:50.018Z,5.72
2023-03-06T07:40:50.019Z,5.72
2023-03-06T07:41:50.005Z,5.73
2023-03-06T07:42:50.046Z,5.70
2023-03-06T07:43:50.035Z,5.72
2023-03-06T07:44:49.977Z,5.73
2023-03-06T07:45:49.968Z,5.74
2023-03-06T07:46:49.975Z,5.74
2023-03-06T07:47:49.954Z,5.77
2023-03-06T07:48:50.000Z,5.74
2023-03-06T07:49:49.926Z,5.74
2023-03-06T07:50:49.905Z,5.76
2023-03-06T07:51:49.932Z,5.77
2023-03-06T07:52:49.900Z,5.77
2023-03-06T07:53:49.892Z,5.79
2023-03-06T07:54:49.926Z,5.74
2023-03-06T07:55:49.894Z,5.74
2023-03-06T07:56:49.889Z,5.77
2023-03-06T07:57:49.856Z,5.79
2023-03-06T07:58:49.874Z,5.79
2023-03-06T07:59:49.827Z,5.76
2023-03-06T08:00:49.843Z,5.77
2023-03-06T08:01:49.812Z,5.79
2023-03-06T08:02:49.831Z,5.77
2023-03-06T08:03:49.856Z,5.77
2023-03-06T08:04:49.756Z,5.74
2023-03-06T08:05:49.817Z,5.79
2023-03-06T08:06:49.735Z,5.77
2023-03-06T08:07:49.727Z,5.76
2023-03-06T08:08:49.795Z,5.77
2023-03-06T08:09:49.737Z,5.77
2023-03-06T08:10:49.700Z,5.76
2023-03-06T08:11:49.753Z,5.76
2023-03-06T08:12:49.682Z,5.79
2023-03-06T08:13:49.714Z,5.80
2023-03-06T08:14:49.719Z,5.80
2023-03-06T08:15:49.668Z,5.83
2023-03-06T08:16:49.651Z,5.83
2023-03-06T08:17:49.631Z,5.84
2023-03-06T08:18:49.704Z,5.84
2023-03-06T08:19:49.629Z,5.87
2023-03-06T08:20:49.623Z,5.84
2023-03-06T08:21:49.585Z,5.87
2023-03-06T08:22:49.595Z,5.84
2023-03-06T08:23:49.558Z,5.88
2023-03-06T08:24:49.549Z,5.87
2023-03-06T08:25:49.541Z,5.90
2023-03-06T08:26:49.537Z,5.88
2023-03-06T08:27:49.523Z,5.87
2023-03-06T08:28:49.533Z,5.87
2023-03-06T08:29:49.504Z,5.90
2023-03-06T08:30:49.485Z,5.91
2023-03-06T08:31:49.571Z,5.92
2023-03-06T08:32:49.458Z,5.87
2023-03-06T08:33:49.518Z,5.91
2023-03-06T08:34:49.510Z,5.87
2023-03-06T08:35:49.537Z,5.91
2023-03-06T08:36:49.423Z,5.90
2023-03-06T08:37:49.421Z,5.91
2023-03-06T08:38:49.460Z,5.92
2023-03-06T08:39:49.396Z,5.95
2023-03-06T08:40:49.452Z,5.97
2023-03-06T08:41:49.401Z,5.99
2023-03-06T08:42:49.500Z,6.02
2023-03-06T08:43:49.352Z,6.09
2023-03-06T08:44:49.349Z,6.13
2023-03-06T08:45:49.378Z,6.16
2023-03-06T08:46:49.364Z,6.17
2023-03-06T08:47:49.313Z,6.17
2023-03-06T08:48:49.303Z,6.22
2023-03-06T08:49:49.443Z,6.25
2023-03-06T08:50:49.276Z,6.28
2023-03-06T08:51:49.307Z,6.32
2023-03-06T08:52:49.247Z,6.35
2023-03-06T08:53:49.263Z,6.35
2023-03-06T08:54:49.335Z,6.34
2023-03-06T08:55:49.222Z,6.36
2023-03-06T08:56:49.236Z,6.36
2023-03-06T08:57:49.204Z,6.36
2023-03-06T08:58:49.200Z,6.38
2023-03-06T08:59:49.186Z,6.41
2023-03-06T09:00:49.242Z,6.43
2023-03-06T09:01:49.177Z,6.46
2023-03-06T09:02:49.181Z,6.50
2023-03-06T09:03:49.302Z,6.54
2023-03-06T09:04:49.184Z,6.56
2023-03-06T09:05:49.223Z,6.59
2023-03-06T09:06:49.121Z,6.57
2023-03-06T09:07:49.091Z,6.62
2023-03-06T09:08:49.083Z,6.60
2023-03-06T09:09:49.091Z,6.60
2023-03-06T09:10:49.112Z,6.62
2023-03-06T09:11:49.062Z,6.60
2023-03-06T09:12:51.503Z,6.59
2023-03-06T09:13:49.021Z,6.64
2023-03-06T09:14:49.028Z,6.62
2023-03-06T09:15:49.024Z,6.64
2023-03-06T09:16:49.068Z,6.64
2023-03-06T09:17:49.093Z,6.62
2023-03-06T09:18:48.962Z,6.64
2023-03-06T09:19:49.185Z,6.62
2023-03-06T09:20:48.960Z,6.60
2023-03-06T09:21:49.278Z,6.59
2023-03-06T09:22:48.956Z,6.56
2023-03-06T09:23:48.948Z,6.57
2023-03-06T09:24:48.936Z,6.59
2023-03-06T09:25:48.925Z,6.57
2023-03-06T09:26:51.427Z,6.56
2023-03-06T09:27:58.339Z,6.56
2023-03-06T09:28:49.878Z,6.52
2023-03-06T09:29:48.895Z,6.54
2023-03-06T09:30:48.899Z,6.53
2023-03-06T09:31:48.850Z,6.53
2023-03-06T09:32:48.844Z,6.50
2023-03-06T09:33:48.843Z,6.50
2023-03-06T09:34:48.816Z,6.50
2023-03-06T09:35:48.864Z,6.49
2023-03-06T09:36:56.808Z,6.49
2023-03-06T09:37:49.805Z,6.46
2023-03-06T09:38:48.771Z,6.46
2023-03-06T09:39:48.768Z,6.46
2023-03-06T09:40:48.755Z,6.46
2023-03-06T09:41:48.779Z,6.47
2023-03-06T09:42:48.819Z,6.47
2023-03-06T09:43:48.727Z,6.50
2023-03-06T09:44:48.741Z,6.53
2023-03-06T09:45:48.815Z,6.60
2023-03-06T09:46:48.683Z,6.62
2023-03-06T09:47:48.704Z,6.67
2023-03-06T09:48:48.658Z,6.70
2023-03-06T09:49:48.673Z,6.80
2023-03-06T09:50:48.657Z,6.83
2023-03-06T09:51:48.632Z,6.93
2023-03-06T09:52:48.634Z,7.01
2023-03-06T09:53:48.624Z,7.05
2023-03-06T09:54:48.612Z,7.14
2023-03-06T09:55:48.597Z,7.25
2023-03-06T09:56:48.579Z,7.29
2023-03-06T09:57:49.675Z,7.33
2023-03-06T09:58:48.550Z,7.40
2023-03-06T09:59:48.558Z,7.48
2023-03-06T10:00:48.550Z,7.56
2023-03-06T10:01:48.557Z,7.66
2023-03-06T10:02:48.709Z,7.72
2023-03-06T10:03:48.512Z,7.85
2023-03-06T10:04:48.567Z,7.96
2023-03-06T10:05:48.482Z,8.08
2023-03-06T10:06:48.505Z,8.18
2023-03-06T10:07:48.556Z,8.32
2023-03-06T10:08:48.447Z,8.42
2023-03-06T10:09:48.436Z,8.53
2023-03-06T10:10:48.463Z,8.59
2023-03-06T10:11:48.434Z,8.72
2023-03-06T10:12:48.500Z,8.78
2023-03-06T10:13:48.523Z,8.89
2023-03-06T10:14:49.358Z,8.93
2023-03-06T10:15:48.437Z,8.99
2023-03-06T10:16:48.375Z,8.97
2023-03-06T10:17:48.358Z,8.99
2023-03-06T10:18:48.337Z,8.96
2023-03-06T10:19:48.343Z,8.97
2023-03-06T10:20:48.332Z,8.93
2023-03-06T10:21:48.331Z,8.90
2023-03-06T10:23:00.697Z,8.89
2023-03-06T10:23:49.395Z,8.86
2023-03-06T10:24:48.274Z,8.81
2023-03-06T10:25:48.272Z,8.78
2023-03-06T10:26:48.372Z,8.75
2023-03-06T10:27:48.257Z,8.74
2023-03-06T10:28:48.231Z,8.66
2023-03-06T10:30:01.613Z,8.63
2023-03-06T10:30:49.246Z,8.59
2023-03-06T10:31:49.273Z,8.54
2023-03-06T10:32:49.482Z,8.53
2023-03-06T10:33:48.193Z,8.52
2023-03-06T10:34:48.174Z,8.44
2023-03-06T10:35:48.243Z,8.42
2023-03-06T10:36:48.155Z,8.41
2023-03-06T10:37:48.149Z,8.39
2023-03-06T10:38:48.146Z,8.41
2023-03-06T10:39:48.161Z,8.39
2023-03-06T10:40:48.213Z,8.39
2023-03-06T10:41:48.153Z,8.46
2023-03-06T10:42:49.525Z,8.44
2023-03-06T10:43:48.150Z,8.49
2023-03-06T10:44:48.153Z,8.50
2023-03-06T10:45:49.492Z,8.54
2023-03-06T10:46:48.117Z,8.57
2023-03-06T10:47:48.064Z,8.63
2023-03-06T10:48:48.044Z,8.68
2023-03-06T10:49:48.025Z,8.75
2023-03-06T10:50:48.045Z,8.77
2023-03-06T10:51:48.011Z,8.82
2023-03-06T10:52:48.003Z,8.87
2023-03-06T10:53:48.010Z,8.90
2023-03-06T10:54:48.042Z,8.95
2023-03-06T10:55:48.012Z,8.97
2023-03-06T10:56:47.961Z,9.00
2023-03-06T10:57:48.000Z,9.03
2023-03-06T10:58:47.921Z,9.09
2023-03-06T10:59:47.952Z,9.13
2023-03-06T11:00:47.918Z,9.16
2023-03-06T11:01:48.034Z,9.18
2023-03-06T11:02:47.889Z,9.22
2023-03-06T11:03:47.878Z,9.27
2023-03-06T11:04:47.909Z,9.29
2023-03-06T11:05:47.870Z,9.34
2023-03-06T11:06:47.845Z,9.34
2023-03-06T11:07:47.848Z,9.36
2023-03-06T11:08:47.877Z,9.36
2023-03-06T11:09:47.843Z,9.34
2023-03-06T11:10:47.870Z,9.39
2023-03-06T11:11:47.850Z,9.39
2023-03-06T11:12:47.819Z,9.39
2023-03-06T11:13:47.781Z,9.37
2023-03-06T11:14:47.787Z,9.37
2023-03-06T11:15:47.829Z,9.36
2023-03-06T11:16:47.799Z,9.31
2023-03-06T11:17:47.723Z,9.33
2023-03-06T11:18:47.719Z,9.29
2023-03-06T11:19:47.708Z,9.27
2023-03-06T11:20:52.910Z,9.26
2023-03-06T11:21:48.701Z,9.19
2023-03-06T11:22:49.200Z,9.21
2023-03-06T11:23:47.670Z,9.15
2023-03-06T11:24:47.682Z,9.13
2023-03-06T11:25:47.663Z,9.09
2023-03-06T11:26:47.663Z,9.02
2023-03-06T11:27:47.618Z,9.00
2023-03-06T11:28:47.730Z,8.95
2023-03-06T11:29:47.639Z,8.92
2023-03-06T11:30:47.606Z,8.82
2023-03-06T11:31:47.688Z,8.81
2023-03-06T11:32:47.555Z,8.75
2023-03-06T11:33:47.620Z,8.72
2023-03-06T11:34:49.935Z,8.68
2023-03-06T11:35:47.581Z,8.61
2023-03-06T11:36:47.542Z,8.57
2023-03-06T11:37:47.520Z,8.54
2023-03-06T11:38:47.487Z,8.49
2023-03-06T11:39:47.508Z,8.46
2023-03-06T11:40:47.465Z,8.41
2023-03-06T11:41:47.494Z,8.34
2023-03-06T11:42:47.456Z,8.28
2023-03-06T11:43:47.508Z,8.23
2023-03-06T11:44:47.521Z,8.21
2023-03-06T11:45:47.412Z,8.14
2023-03-06T11:46:47.481Z,8.08
2023-03-06T11:47:47.412Z,8.03
2023-03-06T11:48:47.775Z,8.01
2023-03-06T11:49:47.384Z,7.98
2023-03-06T11:50:47.412Z,7.93
2023-03-06T11:51:47.371Z,7.90
2023-03-06T11:52:47.368Z,7.87
2023-03-06T11:53:47.372Z,7.84
2023-03-06T11:54:47.311Z,7.83
2023-03-06T11:55:47.340Z,7.78
2023-03-06T11:56:47.443Z,7.78
2023-03-06T11:57:47.292Z,7.75
2023-03-06T11:58:47.264Z,7.72
2023-03-06T11:59:47.503Z,7.74
2023-03-06T12:00:47.244Z,7.74
2023-03-06T12:01:47.289Z,7.74
2023-03-06T12:02:47.224Z,7.70
2023-03-06T12:03:47.272Z,7.74
2023-03-06T12:04:47.208Z,7.74
2023-03-06T12:05:47.233Z,7.77
2023-03-06T12:06:47.233Z,7.77
2023-03-06T12:07:47.177Z,7.81
2023-03-06T12:08:47.147Z,7.84
2023-03-06T12:09:47.201Z,7.90
2023-03-06T12:10:51.526Z,7.98
2023-03-06T12:11:48.116Z,8.03
2023-03-06T12:12:47.158Z,8.11
2023-03-06T12:13:47.958Z,8.17
2023-03-06T12:14:47.088Z,8.27
2023-03-06T12:15:47.106Z,8.38
2023-03-06T12:16:47.137Z,8.50
2023-03-06T12:17:47.063Z,8.74
2023-03-06T12:18:47.134Z,8.93
2023-03-06T12:19:47.055Z,9.11
2023-03-06T12:20:47.135Z,9.22
2023-03-06T12:21:47.069Z,9.40
2023-03-06T12:22:57.771Z,9.63
2023-03-06T12:23:48.006Z,9.95
2023-03-06T12:24:47.039Z,10.09
2023-03-06T12:25:46.976Z,10.21
2023-03-06T12:26:47.082Z,10.31
2023-03-06T12:27:47.038Z,10.55
2023-03-06T12:28:46.956Z,10.77
2023-03-06T12:29:46.969Z,11.15
2023-03-06T12:30:46.921Z,12.00
2023-03-06T12:31:47.138Z,12.94
2023-03-06T12:32:46.947Z,13.79
2023-03-06T12:33:46.919Z,14.53
2023-03-06T12:34:46.897Z,15.19
2023-03-06T12:35:46.974Z,15.83
2023-03-06T12:36:46.843Z,16.41
2023-03-06T12:37:47.561Z,16.95
2023-03-06T12:38:46.831Z,17.42
2023-03-06T12:39:46.835Z,17.88
2023-03-06T12:40:46.886Z,18.31
2023-03-06T12:41:46.803Z,18.78
2023-03-06T12:42:46.812Z,19.16
2023-03-06T12:43:46.816Z,19.37
2023-03-06T12:44:47.223Z,19.56
2023-03-06T12:45:46.805Z,19.84
2023-03-06T12:46:46.749Z,19.99
2023-03-06T12:47:46.849Z,20.00
2023-03-06T12:48:46.739Z,20.03
2023-03-06T12:49:47.559Z,20.11
2023-03-06T12:50:46.746Z,20.17
2023-03-06T12:51:46.704Z,20.26
2023-03-06T12:52:46.675Z,20.30
2023-03-06T12:53:46.700Z,20.33
2023-03-06T12:54:46.663Z,20.34
2023-03-06T12:55:46.658Z,20.36
2023-03-06T12:56:46.643Z,20.33
2023-03-06T12:57:46.628Z,20.34
2023-03-06T12:58:46.633Z,20.36
2023-03-06T12:59:46.628Z,20.34
2023-03-06T13:00:49.826Z,20.27
2023-03-06T13:01:47.760Z,20.10
2023-03-06T13:02:46.607Z,19.97
2023-03-06T13:03:46.582Z,19.77
2023-03-06T13:04:46.602Z,19.47
2023-03-06T13:05:46.604Z,19.22
2023-03-06T13:06:50.828Z,18.91
2023-03-06T13:07:46.533Z,18.64
2023-03-06T13:08:46.704Z,18.36
2023-03-06T13:09:46.527Z,18.15
2023-03-06T13:10:46.538Z,17.88
2023-03-06T13:11:46.556Z,17.63
2023-03-06T13:12:46.482Z,17.38
2023-03-06T13:13:46.495Z,17.28
2023-03-06T13:14:54.099Z,17.31
2023-03-06T13:15:47.439Z,17.31
2023-03-06T13:16:46.526Z,17.12
2023-03-06T13:17:46.475Z,16.92